createdAt,value
2022-08-25T00:02:36.000Z,23.55
2022-08-25T00:07:34.000Z,23.03
2022-08-25T00:12:34.000Z,22.78
2022-08-25T00:17:35.000Z,23.78
2022-08-25T00:22:35.000Z,26.06
2022-08-25T00:27:35.000Z,24.76
2022-08-25T00:32:35.000Z,23.65
2022-08-25T00:37:34.000Z,24.6
2022-08-25T00:42:35.000Z,23.81
2022-08-25T00:47:35.000Z,25.35
2022-08-25T00:52:35.000Z,25.57
2022-08-25T00:57:45.000Z,22.87
2022-08-25T01:02:34.000Z,21.79
2022-08-25T01:07:35.000Z,21.81
2022-08-25T01:12:35.000Z,21.81
2022-08-25T01:17:34.000Z,21.54
2022-08-25T01:27:34.000Z,21.4
2022-08-25T01:32:35.000Z,21.56
2022-08-25T01:37:35.000Z,22.08
2022-08-25T01:42:35.000Z,22.52
2022-08-25T01:52:35.000Z,23.02
2022-08-25T01:57:34.000Z,24.42
2022-08-25T02:02:36.000Z,22.38
2022-08-25T02:07:35.000Z,22.07
2022-08-25T02:17:35.000Z,21.91
2022-08-25T02:22:35.000Z,22.43
2022-08-25T02:27:35.000Z,23.14
2022-08-25T02:32:34.000Z,23.29
2022-08-25T02:37:34.000Z,24.88
2022-08-25T02:42:35.000Z,23.49
2022-08-25T02:47:37.000Z,23.56
2022-08-25T02:52:35.000Z,24.95
2022-08-25T02:57:35.000Z,25.61
2022-08-25T03:02:35.000Z,23.91
2022-08-25T03:07:34.000Z,24.27
2022-08-25T03:12:35.000Z,24.27
2022-08-25T03:17:35.000Z,23.07
2022-08-25T03:22:37.000Z,23.42
2022-08-25T03:27:34.000Z,23.88
2022-08-25T03:32:35.000Z,23.96
2022-08-25T03:37:34.000Z,23.28
2022-08-25T03:42:34.000Z,22.94
2022-08-25T03:47:35.000Z,23.88
2022-08-25T03:52:34.000Z,23.89
2022-08-25T03:57:35.000Z,23.28
2022-08-25T04:02:36.000Z,22.65
2022-08-25T04:07:35.000Z,22.51
2022-08-25T04:12:34.000Z,22.16
2022-08-25T04:17:35.000Z,22.24
2022-08-25T04:22:38.000Z,22.19
2022-08-25T04:27:34.000Z,22.19
2022-08-25T04:32:35.000Z,22.37
2022-08-25T04:37:34.000Z,22.13
2022-08-25T04:42:35.000Z,22.25
2022-08-25T04:47:38.000Z,21.65
2022-08-25T04:52:34.000Z,22.53
2022-08-25T04:57:35.000Z,22.44
2022-08-25T05:07:34.000Z,21.55
2022-08-25T05:12:35.000Z,20.61
2022-08-25T05:17:34.000Z,20.58
2022-08-25T05:22:35.000Z,20.31
2022-08-25T05:27:34.000Z,19.36
2022-08-25T05:32:35.000Z,19.52
2022-08-25T05:37:34.000Z,19.52
2022-08-25T05:42:35.000Z,19.02
2022-08-25T05:47:34.000Z,17.9
2022-08-25T05:52:35.000Z,18.37
2022-08-25T05:57:34.000Z,17.22
2022-08-25T06:02:35.000Z,16.64
2022-08-25T06:07:37.000Z,16.18
2022-08-25T06:12:35.000Z,15.62
2022-08-25T06:17:35.000Z,16.01
2022-08-25T06:22:35.000Z,16.76
2022-08-25T06:27:34.000Z,16.09
2022-08-25T06:32:35.000Z,17.03
2022-08-25T06:37:35.000Z,16.62
2022-08-25T06:42:35.000Z,16.4
2022-08-25T06:47:35.000Z,15.4
2022-08-25T06:52:39.000Z,15.4
2022-08-25T06:57:36.000Z,15.13
2022-08-25T07:02:35.000Z,14.9
2022-08-25T07:07:34.000Z,14.56
2022-08-25T07:12:35.000Z,13.99
2022-08-25T07:17:35.000Z,14.3
2022-08-25T07:22:34.000Z,14.05
2022-08-25T07:27:34.000Z,14.05
2022-08-25T07:32:35.000Z,14.73
2022-08-25T07:37:58.000Z,13.9
2022-08-25T07:42:35.000Z,13.97
2022-08-25T07:47:35.000Z,14.66
2022-08-25T07:52:34.000Z,13.42
2022-08-25T07:57:35.000Z,12.95
2022-08-25T08:02:35.000Z,12.53
2022-08-25T08:07:53.000Z,11.72
2022-08-25T08:12:34.000Z,10.93
2022-08-25T08:17:35.000Z,10.97
2022-08-25T08:22:34.000Z,10.06
2022-08-25T08:27:35.000Z,10.27
2022-08-25T08:32:56.000Z,10.85
2022-08-25T08:37:34.000Z,12.73
2022-08-25T08:42:34.000Z,13.66
2022-08-25T08:47:35.000Z,13.66
2022-08-25T08:52:34.000Z,12.07
2022-08-25T08:57:35.000Z,10.55
2022-08-25T09:02:49.000Z,13.5
2022-08-25T09:07:35.000Z,17.34
2022-08-25T09:12:38.000Z,12.23
2022-08-25T09:17:37.000Z,10.67
2022-08-25T09:27:34.000Z,14.36
2022-08-25T09:32:41.000Z,14.36
2022-08-25T09:37:35.000Z,24.35
2022-08-25T09:42:38.000Z,15.8
2022-08-25T09:47:34.000Z,16.02
2022-08-25T09:52:35.000Z,25.97
2022-08-25T09:57:35.000Z,14.05
2022-08-25T10:02:35.000Z,12.96
2022-08-25T10:07:34.000Z,11.2
2022-08-25T10:12:38.000Z,10.73
2022-08-25T10:22:35.000Z,10.39
2022-08-25T10:27:38.000Z,10.78
2022-08-25T10:32:35.000Z,10.23
2022-08-25T10:37:35.000Z,10.23
2022-08-25T10:42:36.000Z,10.94
2022-08-25T10:47:35.000Z,10.68
2022-08-25T10:52:35.000Z,10.94
2022-08-25T10:57:35.000Z,11.88
2022-08-25T11:02:35.000Z,11.88
2022-08-25T11:07:34.000Z,11.85
2022-08-25T11:12:34.000Z,12.03
2022-08-25T11:17:35.000Z,15.71
2022-08-25T11:22:35.000Z,16.44
2022-08-25T11:27:34.000Z,12.85
2022-08-25T11:32:34.000Z,12.45
2022-08-25T11:37:35.000Z,12.59
2022-08-25T11:42:35.000Z,18.6
2022-08-25T11:47:35.000Z,14.28
2022-08-25T11:52:40.000Z,12.53
2022-08-25T11:57:36.000Z,12.53
2022-08-25T12:02:35.000Z,13.66
2022-08-25T12:07:34.000Z,13.25
2022-08-25T12:12:35.000Z,14.73
2022-08-25T12:17:35.000Z,13.9
2022-08-25T12:22:34.000Z,14.58
2022-08-25T12:27:36.000Z,14.78
2022-08-25T12:32:37.000Z,13.64
2022-08-25T12:37:35.000Z,13.55
2022-08-25T12:42:36.000Z,13.18
2022-08-25T12:47:35.000Z,14.78
2022-08-25T12:52:38.000Z,13.35
2022-08-25T12:57:40.000Z,14.2
2022-08-25T13:02:35.000Z,13.35
2022-08-25T13:07:35.000Z,14.55
2022-08-25T13:12:35.000Z,14.55
2022-08-25T13:17:34.000Z,14.69
2022-08-25T13:22:35.000Z,14.59
2022-08-25T13:27:34.000Z,15.17
2022-08-25T13:32:42.000Z,15.18
2022-08-25T13:37:35.000Z,16.3
2022-08-25T13:42:39.000Z,16.75
2022-08-25T13:47:35.000Z,17.61
2022-08-25T13:52:39.000Z,17.3
2022-08-25T13:57:35.000Z,17.5
2022-08-25T14:02:38.000Z,18.85
2022-08-25T14:07:34.000Z,18.34
2022-08-25T14:12:35.000Z,17.52
2022-08-25T14:17:50.000Z,18.2
2022-08-25T14:22:35.000Z,16.3
2022-08-25T14:27:34.000Z,16.3
2022-08-25T14:32:36.000Z,17.19
2022-08-25T14:37:35.000Z,15.74
2022-08-25T14:42:36.000Z,14.76
2022-08-25T14:47:34.000Z,15.52
2022-08-25T14:52:35.000Z,15.39
2022-08-25T14:57:35.000Z,15.78
2022-08-25T15:02:40.000Z,14.52
2022-08-25T15:07:34.000Z,15.43
2022-08-25T15:12:57.000Z,14.95
2022-08-25T15:17:35.000Z,14.72
2022-08-25T15:22:37.000Z,15.33
2022-08-25T15:27:40.000Z,15.2
2022-08-25T15:32:37.000Z,15.95
2022-08-25T15:37:35.000Z,16.33
2022-08-25T15:42:35.000Z,16.33
2022-08-25T15:47:34.000Z,15.6
2022-08-25T15:57:34.000Z,17.1
2022-08-25T16:02:35.000Z,16.97
2022-08-25T16:07:35.000Z,17.53
2022-08-25T16:12:38.000Z,17.17
2022-08-25T16:17:35.000Z,18.22
2022-08-25T16:22:36.000Z,18.73
2022-08-25T16:27:35.000Z,18.73
2022-08-25T16:32:34.000Z,18.5
2022-08-25T16:37:36.000Z,18.67
2022-08-25T16:42:36.000Z,21.29
2022-08-25T16:47:37.000Z,24.53
2022-08-25T16:57:35.000Z,26.65
2022-08-25T17:02:35.000Z,29.66
2022-08-25T17:07:34.000Z,27.18
2022-08-25T17:12:35.000Z,29.68
2022-08-25T17:17:37.000Z,36.22
2022-08-25T17:22:35.000Z,39.01
2022-08-25T17:27:34.000Z,39.98
2022-08-25T17:32:40.000Z,42.71
2022-08-25T17:37:35.000Z,41.17
2022-08-25T17:42:40.000Z,41.17
2022-08-25T17:47:35.000Z,33.36
2022-08-25T17:52:35.000Z,39.35
2022-08-25T17:57:34.000Z,50.21
2022-08-25T18:02:38.000Z,55.11
2022-08-25T18:07:35.000Z,48.39
2022-08-25T18:12:37.000Z,47.56
2022-08-25T18:17:35.000Z,49.52
2022-08-25T18:22:34.000Z,49.06
2022-08-25T18:27:36.000Z,46.51
2022-08-25T18:32:36.000Z,46.05
2022-08-25T18:37:35.000Z,43.4
2022-08-25T18:42:34.000Z,41.35
2022-08-25T18:47:35.000Z,38.63
2022-08-25T18:52:35.000Z,35.35
2022-08-25T18:57:38.000Z,35.35
2022-08-25T19:02:34.000Z,34.97
2022-08-25T19:07:34.000Z,33.85
2022-08-25T19:12:34.000Z,33.73
2022-08-25T19:17:37.000Z,33.43
2022-08-25T19:22:51.000Z,34.06
2022-08-25T19:27:35.000Z,34.21
2022-08-25T19:32:34.000Z,33.9
2022-08-25T19:37:35.000Z,34.68
2022-08-25T19:42:48.000Z,38.08
2022-08-25T19:47:35.000Z,41.86
2022-08-25T19:52:36.000Z,42.77
2022-08-25T20:02:38.000Z,62.11
2022-08-25T20:07:34.000Z,68.82
2022-08-25T20:12:36.000Z,69.23
2022-08-25T20:17:38.000Z,71.3
2022-08-25T20:22:36.000Z,62.51
2022-08-25T20:27:35.000Z,62.51
2022-08-25T20:32:35.000Z,52.46
2022-08-25T20:37:34.000Z,46.95
2022-08-25T20:42:35.000Z,47.18
2022-08-25T20:47:34.000Z,47.55
2022-08-25T20:52:35.000Z,44.6
2022-08-25T20:57:38.000Z,45.26
2022-08-25T21:02:34.000Z,44.8
2022-08-25T21:07:35.000Z,47.66
2022-08-25T21:12:37.000Z,50.67
2022-08-25T21:17:35.000Z,52.49
2022-08-25T21:22:34.000Z,51.09
2022-08-25T21:27:35.000Z,46.73
2022-08-25T21:32:34.000Z,50.41
2022-08-25T21:37:35.000Z,50.41
2022-08-25T21:42:35.000Z,47.46
2022-08-25T21:47:35.000Z,45.57
2022-08-25T21:52:35.000Z,44.36
2022-08-25T21:57:35.000Z,46.03
2022-08-25T22:02:36.000Z,49.87
2022-08-25T22:07:35.000Z,52.4
2022-08-25T22:17:34.000Z,48.75
2022-08-25T22:22:35.000Z,49.54
2022-08-25T22:27:34.000Z,48.55
2022-08-25T22:32:35.000Z,48.13
2022-08-25T22:37:35.000Z,53.67
2022-08-25T22:42:35.000Z,56.36
2022-08-25T22:47:36.000Z,59.04
2022-08-25T22:52:43.000Z,63.25
2022-08-25T22:57:34.000Z,64.54
2022-08-25T23:02:40.000Z,58.99
2022-08-25T23:07:35.000Z,58.99
2022-08-25T23:12:34.000Z,56.25
2022-08-25T23:17:34.000Z,55.31
2022-08-25T23:22:37.000Z,53.08
2022-08-25T23:27:35.000Z,53.73
2022-08-25T23:32:38.000Z,53.68
2022-08-25T23:37:36.000Z,51.03
2022-08-25T23:47:34.000Z,48.66
2022-08-25T23:52:35.000Z,43.36
2022-08-25T23:57:35.000Z,43.36
